Time;durP1;ratioP1;P1;durP2;ratioP2;P2;SDS_P1;SDS_P2;PMS_P1;PMS_P2;Temp;Humidity;BMP_temperature;BMP_pressure;BME280_temperature;BME280_humidity;BME280_pressure;Samples;Min_cycle;Max_cycle;Signal;HPM_P1;HPM_P2
2023/03/07 00:02:23;;;;;;;;;23.00;20.75;;;;;7.40;55.92;99949.88;5014161;28;45464;-60
2023/03/07 00:04:48;;;;;;;;;22.50;17.75;;;;;7.38;55.85;99944.63;5014391;28;45608;-60
2023/03/07 00:07:14;;;;;;;;;24.75;24.75;;;;;7.42;55.76;99951.34;5012433;28;46845;-60
2023/03/07 00:09:40;;;;;;;;;23.00;18.50;;;;;7.46;55.83;99951.75;5012623;28;45339;-61
2023/03/07 00:12:06;;;;;;;;;23.50;20.00;;;;;7.48;55.71;99952.41;5029351;28;45435;-60
2023/03/07 00:14:32;;;;;;;;;24.60;19.80;;;;;7.46;55.44;99954.47;4996895;28;45515;-61
2023/03/07 00:16:57;;;;;;;;;21.75;20.00;;;;;7.35;55.82;99944.22;5015954;28;45976;-61
2023/03/07 00:19:23;;;;;;;;;23.25;20.25;;;;;7.33;56.29;99937.06;5017636;28;45552;-61
2023/03/07 00:21:48;;;;;;;;;22.25;18.50;;;;;7.39;55.73;99940.84;5016182;28;45369;-61
2023/03/07 00:24:14;;;;;;;;;20.25;16.00;;;;;7.23;56.20;99919.41;5018140;28;45523;-61
2023/03/07 00:26:39;;;;;;;;;24.75;19.75;;;;;7.35;55.41;99933.31;4999276;28;47383;-62
2023/03/07 00:29:07;;;;;;;;;26.25;21.25;;;;;7.38;55.68;99941.91;5016060;28;45439;-60
2023/03/07 00:31:32;;;;;;;;;24.80;20.40;;;;;7.37;55.84;99942.94;4978179;28;45324;-60
2023/03/07 00:33:58;;;;;;;;;23.75;22.25;;;;;7.08;55.62;99923.19;5016330;28;45334;-60
2023/03/07 00:36:25;;;;;;;;;21.50;19.00;;;;;7.26;55.57;99933.50;5016069;28;46119;-61
2023/03/07 00:38:51;;;;;;;;;23.60;19.40;;;;;7.02;55.97;99892.16;5015998;28;45295;-61
2023/03/07 00:41:19;;;;;;;;;19.50;16.75;;;;;7.22;55.90;99937.69;5032931;28;45557;-60
2023/03/07 00:43:45;;;;;;;;;26.00;22.40;;;;;7.23;55.99;99925.72;5015738;28;45888;-60
2023/03/07 00:46:11;;;;;;;;;25.40;19.40;;;;;7.10;55.82;99901.16;5017090;28;45996;-64
2023/03/07 00:48:37;;;;;;;;;17.75;17.25;;;;;7.19;55.61;99919.84;5017099;28;45446;-61
2023/03/07 00:51:04;;;;;;;;;20.25;18.00;;;;;7.00;55.82;99880.56;5016789;28;45412;-60
2023/03/07 00:53:29;;;;;;;;;25.60;20.40;;;;;7.27;55.70;99912.50;5015673;28;45559;-60
2023/03/07 00:56:02;;;;;;;;;24.00;20.50;;;;;7.26;55.91;99908.09;5015831;28;45485;-62
2023/03/07 00:58:28;;;;;;;;;27.20;21.00;;;;;7.24;55.97;99907.44;5015389;28;45362;-62
2023/03/07 01:00:54;;;;;;;;;21.20;17.20;;;;;7.06;55.24;99862.53;5017444;28;45187;-60
2023/03/07 01:03:19;;;;;;;;;18.50;18.50;;;;;7.12;55.46;99878.09;5017203;28;45518;-60
2023/03/07 01:05:46;;;;;;;;;22.00;18.50;;;;;7.30;55.21;99898.41;5015805;28;47098;-60
2023/03/07 01:08:13;;;;;;;;;21.80;16.00;;;;;7.29;55.70;99894.00;5016440;28;45339;-60
2023/03/07 01:10:38;;;;;;;;;17.60;14.20;;;;;7.28;55.17;99895.06;5015733;28;45475;-60
2023/03/07 01:13:04;;;;;;;;;23.50;20.50;;;;;7.08;55.05;99851.41;5016483;28;45671;-61
2023/03/07 01:15:29;;;;;;;;;25.50;21.25;;;;;7.28;55.38;99884.16;5031762;28;48750;-61
2023/03/07 01:17:55;;;;;;;;;27.25;19.50;;;;;7.27;55.72;99883.28;5015182;28;45447;-61
2023/03/07 01:20:21;;;;;;;;;20.50;17.25;;;;;7.12;55.35;99848.06;4999176;28;45490;-61
2023/03/07 01:22:46;;;;;;;;;27.50;24.75;;;;;7.31;55.04;99873.66;5016883;28;45592;-62
2023/03/07 01:25:12;;;;;;;;;28.00;22.00;;;;;7.29;55.24;99858.53;5016217;28;45322;-61
2023/03/07 01:27:38;;;;;;;;;32.50;24.00;;;;;7.33;55.55;99863.34;5016427;28;45500;-60
2023/03/07 01:30:06;;;;;;;;;25.50;22.25;;;;;7.02;54.99;99806.72;5016462;28;45329;-60
2023/03/07 01:32:31;;;;;;;;;26.60;21.20;;;;;7.24;54.97;99847.41;5015537;28;45593;-61
2023/03/07 01:34:57;;;;;;;;;21.75;20.50;;;;;7.35;55.16;99852.22;5015312;28;45521;-60
2023/03/07 01:37:22;;;;;;;;;23.00;17.25;;;;;7.33;55.18;99849.69;5016054;28;45316;-60
2023/03/07 01:39:52;;;;;;;;;23.75;20.75;;;;;7.30;54.86;99839.22;5015256;28;45366;-60
2023/03/07 01:42:19;;;;;;;;;19.40;18.00;;;;;7.33;55.52;99840.69;5031872;28;45551;-60
2023/03/07 01:44:58;;;;;;;;;27.40;21.40;;;;;7.08;55.25;99808.59;5014799;28;46600;-60
2023/03/07 01:47:25;;;;;;;;;22.40;21.60;;;;;7.30;54.94;99833.75;5015974;28;45355;-60
2023/03/07 01:49:51;;;;;;;;;25.40;20.60;;;;;7.35;55.10;99833.13;5015025;28;45270;-61
2023/03/07 01:52:37;;;;;;;;;28.00;22.80;;;;;7.35;54.99;99833.13;4998875;28;45395;-61
2023/03/07 01:55:12;;;;;;;;;21.00;17.60;;;;;7.35;55.33;99835.03;5015905;28;45299;-61
2023/03/07 01:57:39;;;;;;;;;19.60;18.40;;;;;7.33;55.17;99832.50;5014846;28;45396;-60
2023/03/07 02:00:08;;;;;;;;;18.80;15.60;;;;;7.33;54.97;99821.56;5016167;28;45426;-61
2023/03/07 02:02:35;;;;;;;;;21.00;20.00;;;;;7.27;55.07;99814.25;4999130;28;45784;-61
2023/03/07 02:05:12;;;;;;;;;20.20;17.80;;;;;7.29;55.12;99814.84;5031261;28;46462;-61
2023/03/07 02:07:47;;;;;;;;;18.80;18.00;;;;;6.97;55.27;99755.50;4999158;28;45374;-61
2023/03/07 02:10:14;;;;;;;;;20.20;19.60;;;;;7.31;54.85;99812.78;5015025;28;45302;-61
2023/03/07 02:12:41;;;;;;;;;19.60;19.60;;;;;7.16;55.10;99808.38;5014214;28;45382;-60
2023/03/07 02:15:09;;;;;;;;;22.60;18.20;;;;;6.80;55.01;99741.47;5015580;28;47655;-61
2023/03/07 02:17:34;;;;;;;;;27.40;22.20;;;;;6.51;55.49;99694.50;5013859;28;45438;-61
2023/03/07 02:20:37;;;;;;;;;26.00;23.50;;;;;7.21;55.32;99796.84;5004860;28;45558;-61
2023/03/07 02:23:03;;;;;;;;;27.80;25.00;;;;;7.22;55.22;99786.72;5015626;28;45314;-61
2023/03/07 02:25:43;;;;;;;;;23.75;18.50;;;;;7.19;55.09;99779.81;4997457;28;47670;-61
2023/03/07 02:28:12;;;;;;;;;22.00;21.80;;;;;7.19;55.52;99796.19;4997673;28;45458;-60
2023/03/07 02:30:37;;;;;;;;;19.80;18.60;;;;;7.05;55.42;99768.91;5013681;28;45368;-60
2023/03/07 02:33:03;;;;;;;;;23.00;17.25;;;;;7.18;55.14;99789.91;5015427;28;45471;-59
2023/03/07 02:35:29;;;;;;;;;23.00;19.50;;;;;7.18;55.35;99781.72;5015224;28;45504;-60
2023/03/07 02:37:58;;;;;;;;;26.00;19.60;;;;;6.80;55.48;99716.06;5012477;28;45332;-60
2023/03/07 02:40:25;;;;;;;;;22.60;21.00;;;;;7.15;55.26;99776.66;4983814;28;45264;-59
2023/03/07 02:42:50;;;;;;;;;20.60;17.00;;;;;7.15;55.58;99773.94;5008637;28;45441;-59
2023/03/07 02:45:17;;;;;;;;;23.75;19.00;;;;;7.16;55.63;99775.63;5014884;28;46376;-62
2023/03/07 02:47:43;;;;;;;;;20.80;20.60;;;;;6.56;55.17;99659.28;5013315;28;45420;-61
2023/03/07 02:50:10;;;;;;;;;21.25;18.25;;;;;7.22;55.70;99764.91;5015087;28;45805;-60
2023/03/07 02:52:35;;;;;;;;;18.80;15.00;;;;;7.23;55.53;99763.84;5015063;28;45607;-60
2023/03/07 02:55:00;;;;;;;;;21.00;17.00;;;;;7.02;55.22;99738.50;5014505;28;46753;-61
2023/03/07 02:57:26;;;;;;;;;23.25;19.00;;;;;7.24;55.48;99757.31;5015023;28;45417;-60
2023/03/07 02:59:51;;;;;;;;;22.75;17.75;;;;;7.25;54.96;99757.13;5015034;28;45806;-62
2023/03/07 03:02:17;;;;;;;;;23.50;18.25;;;;;7.21;54.97;99757.78;5013640;28;45442;-59
2023/03/07 03:04:42;;;;;;;;;24.75;22.75;;;;;7.20;55.27;99751.47;5014999;28;45538;-62
2023/03/07 03:07:09;;;;;;;;;18.75;16.00;;;;;7.19;55.64;99749.78;5014598;28;45318;-62
2023/03/07 03:09:35;;;;;;;;;19.60;19.00;;;;;7.15;55.50;99752.09;5014894;28;45377;-61
2023/03/07 03:12:01;;;;;;;;;21.75;18.75;;;;;7.21;55.39;99750.44;5014734;28;45507;-61
2023/03/07 03:14:27;;;;;;;;;24.80;18.60;;;;;7.24;55.28;99746.41;5013029;28;47126;-61
2023/03/07 03:16:54;;;;;;;;;34.75;26.25;;;;;7.23;55.47;99742.88;5013323;28;45507;-61
2023/03/07 03:19:19;;;;;;;;;19.40;14.40;;;;;7.24;55.35;99743.69;5014207;28;45446;-61
2023/03/07 03:21:45;;;;;;;;;27.50;20.25;;;;;7.19;55.48;99734.25;5015107;28;45366;-61
2023/03/07 03:24:12;;;;;;;;;18.00;15.25;;;;;7.18;55.04;99729.88;4973716;28;47817;-61
2023/03/07 03:26:37;;;;;;;;;28.60;21.80;;;;;7.17;55.09;99736.34;5014243;28;45313;-61
2023/03/07 03:29:04;;;;;;;;;21.25;17.50;;;;;7.13;55.36;99723.34;5014408;28;45276;-61
2023/03/07 03:31:30;;;;;;;;;19.20;18.80;;;;;6.47;55.54;99612.31;5014855;28;45299;-61
2023/03/07 03:33:57;;;;;;;;;22.25;17.50;;;;;7.19;55.25;99726.06;5014111;28;46164;-61
2023/03/07 03:36:24;;;;;;;;;23.60;23.00;;;;;7.11;55.35;99729.03;5014162;28;45526;-61
2023/03/07 03:38:54;;;;;;;;;17.40;13.60;;;;;7.08;56.04;99729.47;5013091;28;45406;-61
2023/03/07 03:41:20;;;;;;;;;21.80;19.00;;;;;7.10;55.31;99713.69;5012934;28;45376;-61
2023/03/07 03:43:45;;;;;;;;;21.25;18.75;;;;;7.10;55.90;99712.88;5012742;28;47374;-61
2023/03/07 03:46:11;;;;;;;;;20.25;17.75;;;;;6.58;55.35;99624.47;5014123;28;45313;-61
2023/03/07 03:48:39;;;;;;;;;20.00;19.75;;;;;6.89;55.41;99671.19;5013219;28;45461;-61
2023/03/07 03:51:13;;;;;;;;;21.20;17.80;;;;;7.10;55.31;99710.97;5014186;28;45413;-61
2023/03/07 03:53:39;;;;;;;;;14.60;10.80;;;;;6.82;55.80;99663.00;5013426;28;46094;-61
2023/03/07 03:56:10;;;;;;;;;23.50;21.25;;;;;6.85;55.74;99664.47;4996069;28;45473;-61
2023/03/07 03:58:36;;;;;;;;;26.00;16.80;;;;;7.06;55.46;99701.56;5013696;28;45374;-61
2023/03/07 04:01:06;;;;;;;;;18.80;15.60;;;;;7.03;55.89;99696.50;5029393;28;45494;-64
2023/03/07 04:03:33;;;;;;;;;21.60;20.00;;;;;6.96;55.39;99677.44;5012255;28;46131;-61
2023/03/07 04:06:05;;;;;;;;;18.00;15.60;;;;;6.91;55.97;99671.78;5013975;28;45315;-61
2023/03/07 04:08:31;;;;;;;;;21.20;20.40;;;;;7.00;55.51;99686.84;4995751;28;45575;-63
2023/03/07 04:10:57;;;;;;;;;23.75;20.00;;;;;7.05;55.85;99687.06;5012500;28;45584;-61
2023/03/07 04:13:22;;;;;;;;;24.50;18.00;;;;;7.04;55.67;99682.66;5013312;28;46096;-61
2023/03/07 04:15:48;;;;;;;;;18.25;17.00;;;;;6.85;55.38;99656.28;5014022;28;45357;-60
2023/03/07 04:18:14;;;;;;;;;22.50;19.25;;;;;7.01;55.83;99688.56;5014010;28;45341;-61
2023/03/07 04:20:41;;;;;;;;;22.25;18.75;;;;;6.96;55.42;99679.31;5012650;28;45414;-61
2023/03/07 04:23:07;;;;;;;;;21.00;18.40;;;;;7.04;55.60;99687.28;5012761;28;45713;-60
2023/03/07 04:25:32;;;;;;;;;22.50;19.25;;;;;7.05;55.47;99691.69;5014124;28;45467;-60
2023/03/07 04:27:58;;;;;;;;;24.00;18.75;;;;;7.01;55.22;99674.06;5013672;28;45457;-60
2023/03/07 04:30:25;;;;;;;;;24.25;19.00;;;;;6.93;56.41;99674.31;5014295;28;45299;-60
2023/03/07 04:32:52;;;;;;;;;17.80;15.00;;;;;7.00;55.97;99684.13;5013821;28;47313;-60
2023/03/07 04:35:19;;;;;;;;;15.00;15.00;;;;;7.00;56.18;99683.31;5013685;28;45167;-62
2023/03/07 04:37:46;;;;;;;;;18.80;18.40;;;;;7.03;55.96;99691.91;5014167;28;45240;-61
2023/03/07 04:40:12;;;;;;;;;17.20;16.20;;;;;7.02;56.04;99684.78;5012741;28;45322;-60
2023/03/07 04:42:37;;;;;;;;;20.40;17.00;;;;;6.86;55.80;99664.25;5013415;28;45480;-60
2023/03/07 04:45:03;;;;;;;;;25.50;20.00;;;;;7.04;56.28;99681.81;5013963;28;45816;-63
2023/03/07 04:47:29;;;;;;;;;20.50;18.50;;;;;7.05;56.02;99683.50;5012302;28;45412;-61
2023/03/07 04:49:55;;;;;;;;;22.60;18.60;;;;;7.01;55.93;99682.25;5013415;28;45477;-60
2023/03/07 04:52:21;;;;;;;;;22.75;18.00;;;;;6.86;55.71;99666.97;5013426;28;46288;-60
2023/03/07 04:54:47;;;;;;;;;18.20;14.40;;;;;6.95;56.21;99678.50;5011903;28;45497;-60
2023/03/07 04:57:13;;;;;;;;;18.75;18.25;;;;;6.80;56.04;99643.28;5014238;28;45359;-60
2023/03/07 04:59:39;;;;;;;;;24.00;18.60;;;;;6.97;56.18;99672.81;5012195;28;45303;-60
2023/03/07 05:02:06;;;;;;;;;24.00;20.00;;;;;6.91;56.01;99666.34;5015994;28;46101;-61
2023/03/07 05:04:32;;;;;;;;;22.40;20.40;;;;;6.96;56.11;99666.53;5016853;28;45229;-61
2023/03/07 05:06:57;;;;;;;;;23.00;18.50;;;;;6.83;55.84;99647.47;5016822;28;45377;-61
2023/03/07 05:09:24;;;;;;;;;21.75;20.00;;;;;6.96;56.14;99669.25;5015720;28;45584;-60
2023/03/07 05:11:50;;;;;;;;;21.60;17.40;;;;;6.98;56.21;99666.34;5016857;28;46100;-60
2023/03/07 05:14:16;;;;;;;;;22.00;19.00;;;;;6.89;55.86;99655.63;5015846;28;45349;-60
2023/03/07 05:16:41;;;;;;;;;20.00;17.25;;;;;6.74;56.12;99627.78;4996757;28;45622;-60
2023/03/07 05:19:08;;;;;;;;;17.75;14.75;;;;;6.98;55.85;99658.16;5011987;28;45416;-60
2023/03/07 05:21:34;;;;;;;;;25.20;23.80;;;;;6.98;56.23;99658.97;5014823;28;46356;-60
2023/03/07 05:24:01;;;;;;;;;19.50;19.50;;;;;6.94;55.94;99665.88;5015914;28;45271;-61
2023/03/07 05:26:28;;;;;;;;;22.20;15.20;;;;;6.42;55.72;99581.28;5015386;28;45283;-60
2023/03/07 05:28:53;;;;;;;;;18.00;18.00;;;;;6.91;56.92;99667.19;5014896;28;45429;-61
2023/03/07 05:31:20;;;;;;;;;23.50;16.25;;;;;6.86;56.62;99652.50;5016211;28;46754;-60
2023/03/07 05:33:45;;;;;;;;;22.20;17.00;;;;;6.86;56.31;99647.03;5016442;28;45409;-60
2023/03/07 05:36:11;;;;;;;;;23.25;15.75;;;;;6.90;56.21;99659.22;5016400;28;45475;-60
2023/03/07 05:38:36;;;;;;;;;26.75;20.75;;;;;6.88;56.49;99656.69;5016359;28;45454;-59
2023/03/07 05:41:02;;;;;;;;;20.00;17.50;;;;;6.90;57.00;99657.31;5014981;28;46434;-60
2023/03/07 05:43:27;;;;;;;;;29.25;21.75;;;;;6.94;56.42;99648.69;5016209;28;45381;-60
2023/03/07 05:45:54;;;;;;;;;22.75;19.75;;;;;6.91;56.28;99644.50;5016291;28;45339;-61
2023/03/07 05:48:20;;;;;;;;;18.20;15.40;;;;;6.83;56.41;99650.22;5015899;28;45362;-60
2023/03/07 05:50:45;;;;;;;;;23.50;20.00;;;;;6.88;56.17;99639.50;5015952;28;45734;-60
2023/03/07 05:53:11;;;;;;;;;22.50;21.50;;;;;6.87;56.32;99635.91;5014428;28;45352;-61
2023/03/07 05:55:36;;;;;;;;;22.75;21.50;;;;;6.95;56.46;99634.00;5014717;28;45376;-61
2023/03/07 05:58:02;;;;;;;;;20.75;18.00;;;;;6.97;56.10;99637.34;5016517;28;45199;-60
2023/03/07 06:00:27;;;;;;;;;19.50;18.50;;;;;6.97;56.66;99631.88;5015797;28;46301;-59
2023/03/07 06:02:53;;;;;;;;;17.50;14.50;;;;;6.98;56.33;99634.41;5015984;28;45402;-61
2023/03/07 06:05:20;;;;;;;;;23.00;19.00;;;;;6.90;56.20;99608.19;5015441;28;45270;-61
2023/03/07 06:07:45;;;;;;;;;20.60;18.40;;;;;6.89;56.76;99616.63;5016248;28;45279;-59
2023/03/07 06:10:11;;;;;;;;;17.75;14.50;;;;;6.96;55.92;99624.75;5014126;28;46403;-61
2023/03/07 06:12:36;;;;;;;;;16.75;15.00;;;;;6.75;56.56;99586.66;5013758;28;45438;-61
2023/03/07 06:15:04;;;;;;;;;23.50;18.25;;;;;6.87;55.99;99627.75;5014331;28;45418;-61
2023/03/07 06:17:29;;;;;;;;;16.20;15.00;;;;;6.84;57.03;99609.06;4931226;28;46076;-62
2023/03/07 06:19:55;;;;;;;;;21.00;19.25;;;;;6.86;56.78;99628.78;5004078;28;45361;-62
2023/03/07 06:22:20;;;;;;;;;20.80;18.20;;;;;6.90;56.49;99627.28;5015638;28;45229;-61
2023/03/07 06:24:46;;;;;;;;;17.25;16.00;;;;;6.89;56.83;99622.91;5015888;28;45220;-61
2023/03/07 06:27:12;;;;;;;;;18.40;17.60;;;;;6.86;56.75;99617.03;5015707;28;45575;-61
2023/03/07 06:29:38;;;;;;;;;30.00;18.00;;;;;6.92;56.41;99621.63;5015022;28;46388;-61
2023/03/07 06:32:04;;;;;;;;;13.00;13.00;;;;;6.87;56.96;99614.09;5015719;28;45347;-61
2023/03/07 06:34:31;;;;;;;;;17.20;15.40;;;;;6.87;56.98;99621.44;5015396;28;45512;-61
2023/03/07 06:36:57;;;;;;;;;22.40;17.40;;;;;6.62;56.97;99584.81;5014395;28;45634;-61
2023/03/07 06:39:23;;;;;;;;;28.00;21.75;;;;;6.73;56.48;99604.28;5015110;28;45730;-64
2023/03/07 06:41:49;;;;;;;;;17.25;14.25;;;;;6.82;56.71;99619.34;5015244;28;45319;-61
2023/03/07 06:44:15;;;;;;;;;17.00;13.25;;;;;6.67;56.60;99581.44;5015237;28;45367;-60
2023/03/07 06:46:41;;;;;;;;;24.60;15.60;;;;;6.81;56.40;99606.78;5015706;28;45161;-60
2023/03/07 06:49:07;;;;;;;;;15.50;14.00;;;;;6.73;56.92;99615.19;5019956;28;47393;-60
2023/03/07 06:51:34;;;;;;;;;15.50;15.50;;;;;6.72;56.67;99605.34;5034676;28;45211;-61
2023/03/07 06:53:59;;;;;;;;;19.40;16.60;;;;;6.82;56.61;99611.16;5033924;28;45323;-61
2023/03/07 06:56:28;;;;;;;;;17.00;15.00;;;;;6.58;56.73;99572.66;5033952;28;45291;-61
2023/03/07 06:58:54;;;;;;;;;27.00;22.60;;;;;6.81;57.23;99606.78;5033573;28;46199;-59
2023/03/07 07:01:21;;;;;;;;;21.50;21.00;;;;;6.81;57.01;99609.50;5034887;28;45444;-61
2023/03/07 07:03:47;;;;;;;;;20.00;16.20;;;;;6.80;56.70;99606.97;5035036;28;45334;-59
2023/03/07 07:06:12;;;;;;;;;17.25;16.25;;;;;6.77;56.66;99597.34;5035051;28;45595;-61
2023/03/07 07:08:38;;;;;;;;;19.50;15.75;;;;;6.78;56.73;99612.69;5034264;28;45591;-60
2023/03/07 07:11:05;;;;;;;;;17.00;16.00;;;;;6.76;56.76;99612.88;5034559;28;45445;-60
2023/03/07 07:13:30;;;;;;;;;20.20;16.20;;;;;6.61;56.99;99596.75;5034841;28;45728;-59
2023/03/07 07:15:57;;;;;;;;;16.00;14.00;;;;;6.45;56.66;99578.16;5029716;28;45406;-59
2023/03/07 07:18:23;;;;;;;;;16.40;16.00;;;;;6.73;56.60;99615.19;5003835;28;45417;-59
2023/03/07 07:20:56;;;;;;;;;17.00;14.50;;;;;6.72;56.88;99627.97;5010039;28;45434;-60
2023/03/07 07:23:23;;;;;;;;;19.60;17.80;;;;;6.54;57.24;99606.84;5012930;28;45427;-59
2023/03/07 07:25:49;;;;;;;;;20.80;17.60;;;;;6.57;57.19;99628.22;5013193;28;45281;-60
2023/03/07 07:28:16;;;;;;;;;20.00;18.00;;;;;6.60;57.34;99622.34;5012809;28;46144;-60
2023/03/07 07:30:41;;;;;;;;;14.00;11.40;;;;;6.60;57.55;99624.22;5014307;28;45379;-61
2023/03/07 07:33:08;;;;;;;;;15.25;14.50;;;;;6.39;57.72;99589.91;5014512;28;45291;-60
2023/03/07 07:35:33;;;;;;;;;16.80;16.80;;;;;6.59;57.60;99630.75;5014365;28;45495;-61
2023/03/07 07:38:00;;;;;;;;;14.75;14.00;;;;;6.60;57.35;99622.34;5013966;28;46422;-61
2023/03/07 07:40:25;;;;;;;;;24.80;18.00;;;;;6.49;57.78;99609.38;5029549;28;45880;-61
2023/03/07 07:42:54;;;;;;;;;17.00;16.50;;;;;6.60;57.39;99621.50;5014271;28;45369;-61
2023/03/07 07:45:22;;;;;;;;;15.00;15.00;;;;;6.55;57.28;99616.69;5013394;28;45482;-61
2023/03/07 07:47:49;;;;;;;;;14.20;13.80;;;;;6.43;57.76;99585.69;5012624;28;46149;-61
2023/03/07 07:50:17;;;;;;;;;21.20;14.00;;;;;6.58;57.64;99624.47;4992035;28;45412;-60
2023/03/07 07:52:44;;;;;;;;;17.20;15.00;;;;;6.67;57.02;99624.22;5009556;28;45422;-61
2023/03/07 07:55:09;;;;;;;;;20.00;16.80;;;;;6.67;57.33;99625.06;5005757;28;45557;-61
2023/03/07 07:57:36;;;;;;;;;14.50;14.50;;;;;6.71;57.47;99618.13;5010787;28;45449;-61
2023/03/07 08:00:03;;;;;;;;;16.60;13.80;;;;;6.72;57.44;99613.53;4995161;28;45410;-61
2023/03/07 08:02:29;;;;;;;;;12.20;12.20;;;;;6.46;57.25;99567.03;5008260;28;45612;-61
2023/03/07 08:04:55;;;;;;;;;18.75;16.25;;;;;6.58;56.87;99601.81;5007105;28;45489;-60
2023/03/07 08:07:20;;;;;;;;;21.25;16.50;;;;;6.70;56.73;99631.97;5006828;28;48056;-60
2023/03/07 08:09:50;;;;;;;;;17.25;13.50;;;;;6.69;56.93;99635.75;5006105;28;45470;-61
2023/03/07 08:12:39;;;;;;;;;18.40;15.00;;;;;6.74;57.45;99625.88;5010187;28;45394;-55
2023/03/07 08:15:05;;;;;;;;;22.00;16.40;;;;;6.78;56.79;99627.13;5011959;28;45504;-57
2023/03/07 08:17:31;;;;;;;;;20.00;17.00;;;;;6.70;57.23;99624.66;5010956;28;45779;-58
2023/03/07 08:20:00;;;;;;;;;19.80;16.60;;;;;6.67;57.47;99641.41;5011908;28;45465;-61
2023/03/07 08:22:27;;;;;;;;;19.80;17.00;;;;;6.68;57.19;99650.44;4996293;28;45770;-60
2023/03/07 08:24:52;;;;;;;;;25.00;19.00;;;;;6.71;57.71;99655.47;5000450;28;45381;-61
2023/03/07 08:27:18;;;;;;;;;19.25;16.25;;;;;6.54;56.89;99614.19;5026192;28;47618;-60
2023/03/07 08:29:47;;;;;;;;;21.50;18.50;;;;;6.77;57.17;99657.34;5009891;28;45903;-60
2023/03/07 08:32:13;;;;;;;;;16.00;15.00;;;;;6.59;56.97;99630.75;5010601;28;45379;-59
2023/03/07 08:34:39;;;;;;;;;21.25;15.25;;;;;6.61;57.41;99661.34;5011487;28;45323;-59
2023/03/07 08:37:04;;;;;;;;;17.75;13.25;;;;;6.45;57.72;99640.84;5013108;28;45431;-59
2023/03/07 08:39:30;;;;;;;;;19.25;18.50;;;;;6.56;57.65;99653.81;5010835;28;45497;-61
2023/03/07 08:41:55;;;;;;;;;18.25;15.50;;;;;6.49;58.17;99663.91;5028033;28;45327;-62
2023/03/07 08:44:21;;;;;;;;;16.00;14.50;;;;;6.44;57.99;99666.41;5013469;28;45458;-61
2023/03/07 08:46:46;;;;;;;;;21.50;15.00;;;;;6.41;58.65;99655.94;5011463;28;45695;-61
2023/03/07 08:49:12;;;;;;;;;18.50;16.50;;;;;6.49;57.96;99659.28;5008599;28;45375;-61
2023/03/07 08:51:39;;;;;;;;;22.50;16.25;;;;;6.57;58.23;99644.59;5014143;28;45547;-60
2023/03/07 08:54:04;;;;;;;;;18.40;14.40;;;;;6.49;57.20;99617.56;5006436;28;45694;-59
2023/03/07 08:56:30;;;;;;;;;14.75;14.25;;;;;6.74;57.49;99644.13;5013608;28;45516;-59
2023/03/07 08:58:55;;;;;;;;;18.00;14.50;;;;;6.83;57.57;99639.31;5011166;28;45822;-60
2023/03/07 09:01:21;;;;;;;;;16.00;14.00;;;;;6.69;56.90;99606.63;5014053;28;45362;-60
2023/03/07 09:03:46;;;;;;;;;14.75;14.25;;;;;6.92;57.21;99632.53;5008024;28;45504;-59
2023/03/07 09:06:16;;;;;;;;;19.00;14.50;;;;;6.88;57.40;99625.88;5011413;28;46342;-62
2023/03/07 09:08:42;;;;;;;;;16.00;12.00;;;;;6.99;57.17;99640.72;5012441;28;45369;-59
2023/03/07 09:11:09;;;;;;;;;18.75;14.50;;;;;6.94;56.85;99640.53;5013798;28;45359;-60
2023/03/07 09:13:36;;;;;;;;;16.20;13.00;;;;;7.01;56.74;99646.78;5014382;28;45488;-61
2023/03/07 09:16:06;;;;;;;;;14.20;11.20;;;;;6.94;56.35;99635.06;5014030;28;46505;-59
2023/03/07 09:18:35;;;;;;;;;18.80;14.20;;;;;6.98;56.65;99641.78;5009042;28;45455;-61
2023/03/07 09:21:05;;;;;;;;;12.60;12.60;;;;;6.84;56.65;99614.50;5010504;28;45487;-61
2023/03/07 09:23:32;;;;;;;;;18.80;16.00;;;;;7.04;56.46;99635.44;4999492;28;45597;-61
2023/03/07 09:25:59;;;;;;;;;19.20;18.20;;;;;7.08;56.75;99631.22;4990369;28;45460;-60
2023/03/07 09:28:25;;;;;;;;;17.40;12.40;;;;;6.84;56.72;99578.22;5012668;28;45449;-61
2023/03/07 09:30:51;;;;;;;;;16.75;15.00;;;;;7.09;57.02;99618.44;5011336;28;45596;-62
2023/03/07 09:33:16;;;;;;;;;18.50;14.50;;;;;7.18;56.50;99626.16;5011299;28;45376;-59
2023/03/07 09:35:42;;;;;;;;;19.25;17.75;;;;;7.26;56.32;99626.97;5012939;28;46090;-58
2023/03/07 09:38:07;;;;;;;;;17.50;15.50;;;;;7.33;56.16;99619.56;5012929;28;45767;-58
2023/03/07 09:40:33;;;;;;;;;18.25;14.75;;;;;7.40;56.01;99623.09;5012536;28;45412;-59
2023/03/07 09:43:12;;;;;;;;;18.75;15.50;;;;;7.44;56.02;99616.16;5012920;28;45557;-60
2023/03/07 09:45:49;;;;;;;;;18.00;16.20;;;;;7.53;55.74;99618.63;4977510;28;46221;-64
2023/03/07 09:48:15;;;;;;;;;21.80;17.20;;;;;7.51;55.31;99604.34;4999077;28;45379;-61
2023/03/07 09:50:46;;;;;;;;;20.00;16.00;;;;;7.59;55.92;99604.91;5015529;28;45525;-60
2023/03/07 09:53:21;;;;;;;;;15.20;13.00;;;;;7.64;55.10;99607.00;5012629;28;45562;-60
2023/03/07 09:55:50;;;;;;;;;16.80;16.20;;;;;7.54;55.19;99565.69;4994247;28;46027;-59
2023/03/07 09:58:18;;;;;;;;;19.80;16.40;;;;;7.85;55.23;99605.78;5009040;28;45521;-61
2023/03/07 10:00:45;;;;;;;;;20.00;15.60;;;;;7.92;54.84;99608.47;5013630;28;45461;-60
2023/03/07 10:03:15;;;;;;;;;19.80;15.60;;;;;7.95;54.66;99599.00;5010920;28;45549;-61
2023/03/07 10:05:47;;;;;;;;;18.00;16.00;;;;;8.02;54.27;99604.41;5012914;28;47648;-57
2023/03/07 10:08:42;;;;;;;;;20.00;16.40;;;;;7.80;54.21;99548.25;4995499;28;45742;-59
2023/03/07 10:11:45;;;;;;;;;19.80;16.80;;;;;8.21;54.23;99586.16;5009692;28;45336;-56
2023/03/07 10:14:44;;;;;;;;;21.40;15.40;;;;;8.31;53.82;99582.91;5014940;28;45419;-61
2023/03/07 10:18:05;;;;;;;;;21.60;16.60;;;;;8.41;53.39;99584.06;5014737;28;45824;-59
2023/03/07 10:20:31;;;;;;;;;21.20;16.40;;;;;8.52;53.07;99578.94;4973107;28;45416;-60
2023/03/07 10:23:36;;;;;;;;;19.25;14.25;;;;;8.60;52.54;99577.81;5006246;28;45306;-60
2023/03/07 10:26:11;;;;;;;;;17.40;15.60;;;;;8.55;52.58;99567.56;5030813;28;45188;-56
2023/03/07 10:28:39;;;;;;;;;20.00;17.40;;;;;8.67;52.36;99571.19;5030917;28;45380;-59
2023/03/07 10:31:23;;;;;;;;;20.40;16.60;;;;;8.70;51.94;99585.47;5015478;28;45417;-59
2023/03/07 10:33:51;;;;;;;;;19.40;17.60;;;;;8.70;51.83;99575.34;5014084;28;45489;-60
2023/03/07 10:36:37;;;;;;;;;17.80;17.00;;;;;8.78;52.33;99546.84;5015389;28;45571;-60
2023/03/07 10:39:33;;;;;;;;;16.20;16.20;;;;;9.20;51.62;99574.34;5013980;28;46581;-57
2023/03/07 10:41:58;;;;;;;;;19.20;15.80;;;;;9.34;51.26;99572.22;5011153;28;45328;-60
2023/03/07 10:44:24;;;;;;;;;30.75;18.25;;;;;9.46;49.80;99572.25;5005675;28;45479;-61
2023/03/07 10:46:52;;;;;;;;;18.25;17.25;;;;;9.37;50.33;99568.19;4996693;28;46114;-57
2023/03/07 10:49:20;;;;;;;;;16.60;16.60;;;;;9.31;49.77;99549.94;4976997;28;47244;-59
2023/03/07 10:51:53;;;;;;;;;16.80;15.80;;;;;9.55;49.50;99556.34;4994735;28;45595;-60
2023/03/07 10:54:23;;;;;;;;;19.60;18.00;;;;;9.58;49.96;99555.03;5010542;28;45794;-59
2023/03/07 10:57:15;;;;;;;;;17.40;9.80;;;;;9.62;49.21;99557.06;5010781;28;45525;-61
2023/03/07 10:59:48;;;;;;;;;17.20;14.80;;;;;9.43;49.76;99522.59;5011366;28;45456;-61
2023/03/07 11:02:35;;;;;;;;;17.40;15.40;;;;;9.67;48.49;99547.31;5009293;28;45410;-63
2023/03/07 11:05:01;;;;;;;;;16.00;12.80;;;;;9.39;48.47;99518.66;5012216;28;45447;-60
2023/03/07 11:07:32;;;;;;;;;12.80;11.60;;;;;9.44;48.70;99544.28;5011335;28;45451;-61
2023/03/07 11:10:32;;;;;;;;;23.80;12.00;;;;;9.36;48.76;99544.63;5010897;28;46802;-60
2023/03/07 11:12:57;;;;;;;;;13.60;12.00;;;;;9.18;48.42;99508.00;5011318;28;45735;-61
2023/03/07 11:15:23;;;;;;;;;16.25;13.50;;;;;9.15;49.05;99500.28;5011499;28;45395;-61
2023/03/07 11:17:52;;;;;;;;;11.80;11.40;;;;;9.62;48.41;99539.81;5011139;28;45889;-60
2023/03/07 11:20:22;;;;;;;;;13.60;11.60;;;;;9.70;47.47;99557.78;5010917;28;46470;-61
2023/03/07 11:22:48;;;;;;;;;11.60;11.60;;;;;9.75;47.28;99544.22;5011836;28;45322;-62
2023/03/07 11:25:20;;;;;;;;;15.20;12.40;;;;;9.63;47.03;99503.97;5027092;28;45397;-61
2023/03/07 11:27:58;;;;;;;;;14.80;13.40;;;;;9.87;47.15;99517.66;5011471;28;45544;-58
2023/03/07 11:30:38;;;;;;;;;16.80;13.20;;;;;10.00;45.90;99562.38;5010229;28;48930;-61